Flight Track Log - Related Links

Times and Time Zones

All times are in EDT time to prevent confusion due to time zone crossing. See the JBU19 flight status page for this flight to view local times or setup timezone preferences in your user account.

Time Position Orientation Groundspeed Altitude Reporting Facility
EDT Latitude Longitude Course Direction KTS MPH feet Rate Location/Type
Sat 06:07:35 AM 44.4061 -73.2886 196° South 278 320 7,600  Level Boston Center
Sat 06:08:35 AM 44.3289 -73.3164 194° South 284 327 10,800 2,400 Climbing Boston Center
Sat 06:09:00 AM 44.0859 -73.2928 195° South  Level FlightAware Approximate
Sat 06:09:35 AM 44.2347 -73.3469 193° South 322 371 12,400  Level Boston Center
Sat 06:10:00 AM 44.0090 -73.3193 194° South  Level FlightAware Approximate
Sat 06:10:35 AM 44.1386 -73.3772 193° South 348 400 15,100  Level Boston Center
Sat 06:11:00 AM 43.9557 -73.3370 193° South  Level FlightAware Approximate
Sat 06:11:35 AM 44.0406 -73.4075 193° South 360 414 17,800  Level Boston Center
Sat 06:12:00 AM 43.9025 -73.3557 196° South  Level FlightAware Approximate
Sat 06:12:35 AM 43.9464 -73.4581 201° Southwest 360 414 20,100  Level Boston Center
Sat 06:13:35 AM 43.8394 -73.5222 203° Southwest 375 432 22,300 1,950 Climbing Boston Center
Sat 06:14:35 AM 43.7408 -73.5839 204° Southwest 381 438 24,000 1,550 Climbing Boston Center
Sat 06:15:35 AM 43.6508 -73.6339 202° Southwest 393 452 25,400 1,000 Climbing Boston Center
Sat 06:16:35 AM 43.5500 -73.6975 205° Southwest 398 458 26,000 300 Climbing Boston Center
Sat 06:17:35 AM 43.4433 -73.7325 193° South 398 458 26,000  Level Boston Center
Sat 06:18:35 AM 43.3286 -73.7472 185° South 404 465 26,000  Level Boston Center
Sat 06:19:35 AM 43.2181 -73.7564 183° South 404 465 26,000  Level Boston Center
Sat 06:20:35 AM 43.1075 -73.7681 184° South 410 472 26,000  Level Boston Center
Sat 06:21:35 AM 42.9928 -73.7800 184° South 410 472 26,000  Level Boston Center
Sat 06:22:35 AM 42.8822 -73.7889 183° South 410 472 26,000  Level Boston Center
Sat 06:23:35 AM 42.7694 -73.8033 185° South 405 466 26,000  Level Boston Center
Sat 06:24:35 AM 42.6442 -73.8119 183° South 405 466 26,000  Level Boston Center
Sat 06:25:35 AM 42.5358 -73.8122 180° South 405 466 26,000  Level Boston Center
Sat 06:26:35 AM 42.4211 -73.8153 181° South 405 466 26,000  Level Boston Center
Sat 06:27:35 AM 42.3086 -73.8186 181° South 405 466 26,000  Level Boston Center
Sat 06:28:35 AM 42.1983 -73.8189 180° South 405 466 26,000  Level Boston Center
Sat 06:29:35 AM 42.0939 -73.8194 180° South 405 466 26,000  Level Boston Center
Sat 06:30:35 AM 41.9833 -73.8336 185° South 405 466 26,000 -150 Level Boston Center
Sat 06:31:35 AM 41.8764 -73.8761 196° South 405 466 25,700 -800 Descending Boston Center
Sat 06:32:35 AM 41.7656 -73.9181 196° South 398 458 24,400 -1,272 Descending Boston Center
Sat 06:34:06 AM 41.6075 -73.9783 196° South 393 452 22,500 -1,145 Descending New York Center
Sat 06:35:07 AM 41.5211 -74.0128 197° South 379 436 21,500 -1,091 Descending New York Center
Sat 06:36:07 AM 41.4244 -74.0469 195° South 373 429 20,300 -763 Descending New York Center
Sat 06:37:05 AM 41.3436 -74.1011 207° Southwest 348 400 20,000 -151 Descending New York Center
Sat 06:38:06 AM 41.2814 -74.1725 221° Southwest 327 376 20,000  Level New York Center
Sat 06:39:06 AM 41.2328 -74.2639 235° Southwest 306 352 20,000  Level New York Center
Sat 06:40:07 AM 41.1842 -74.3578 235° Southwest 306 352 20,000  Level New York Center
Sat 06:41:05 AM 41.1197 -74.4258 219° Southwest 306 352 20,000 -252 Level New York Center
Sat 06:42:06 AM 41.0358 -74.4406 188° South 300 345 19,500 -492 Descending New York Center
Sat 06:43:07 AM 40.9792 -74.3222 122° Southeast 274 315 19,000 -337 Descending New York Center
Sat 06:43:35 AM 40.9500 -74.2667 125° Southeast 352 405 19,000  Level New York TRACON
Sat 06:44:29 AM 40.8833 -74.1833 137° Southeast 338 389 19,000 -650 Level New York TRACON
Sat 06:45:35 AM 40.8333 -74.0667 119° Southeast 357 411 17,700 -1,476 Descending New York TRACON
Sat 06:46:35 AM 40.8000 -73.9500 111° Southeast 349 402 15,900 -1,900 Descending New York TRACON
Sat 06:47:35 AM 40.7667 -73.8333 111° Southeast 348 400 13,900 -1,474 Descending New York TRACON
Sat 06:48:29 AM 40.7333 -73.7333 114° Southeast 354 407 13,100 -1,450 Descending New York TRACON
Sat 06:49:35 AM 40.7000 -73.6167 111° Southeast 337 388 11,000 -1,905 Descending New York TRACON
Sat 06:50:35 AM 40.7000 -73.5000 90° East 317 365 9,100 -1,952 Descending New York TRACON
Sat 06:51:41 AM 40.7167 -73.3667 81° East 319 367 6,900 -1,619 Descending New York TRACON
Sat 06:52:41 AM 40.6667 -73.3000 135° Southeast 301 346 5,700 -1,333 Descending New York TRACON
Sat 06:53:47 AM 40.6000 -73.3167 191° South 231 266 4,100 -1,095 Descending New York TRACON
Sat 06:54:47 AM 40.5333 -73.3500 201° Southwest 243 280 3,400 -500 Descending New York TRACON
Sat 06:55:47 AM 40.5000 -73.4167 237° Southwest 200 230 3,100 -150 Descending New York TRACON
Sat 06:56:47 AM 40.5167 -73.4667 294° West 185 213 3,100  Level New York TRACON
Sat 06:57:53 AM 40.5333 -73.5333 288° West 170 196 3,100 -48 Level New York TRACON
Sat 06:58:53 AM 40.5667 -73.5833 311° West 155 178 3,000 -300 Descending New York TRACON
Sat 06:59:53 AM 40.5833 -73.6167 303° West 126 145 2,500 -600 Descending New York TRACON
Sat 07:00:53 AM 40.6000 -73.6667 294° West 129 148 1,800 -650 Descending New York TRACON
Sat 07:01:53 AM 40.6167 -73.7000 303° West 116 133 1,200 -650 Descending New York TRACON
Sat 07:02:53 AM 40.6333 -73.7333 303° West 116 133 500 -700 Descending New York TRACON
Sat 07:04:00 AM 40.6333 -73.7667 180° South  Level FlightAware Approximate

Login

Don't have an account? Register now (free) for customized features, flight alerts, and more!